sensor_id;sensor_type;location;lat;lon;timestamp;P1;durP1;ratioP1;P2;durP2;ratioP2
41480;SDS011;27217;51.220;5.308;2022-12-18T00:01:16;76.93;;;24.13;;
41480;SDS011;27217;51.220;5.308;2022-12-18T00:06:10;78.87;;;25.30;;
41480;SDS011;27217;51.220;5.308;2022-12-18T00:08:36;77.37;;;25.10;;
41480;SDS011;27217;51.220;5.308;2022-12-18T00:11:06;85.23;;;27.17;;
41480;SDS011;27217;51.220;5.308;2022-12-18T00:13:33;72.47;;;23.27;;
41480;SDS011;27217;51.220;5.308;2022-12-18T00:16:04;75.57;;;24.57;;
41480;SDS011;27217;51.220;5.308;2022-12-18T00:18:32;76.13;;;24.63;;
41480;SDS011;27217;51.220;5.308;2022-12-18T00:20:58;72.20;;;24.50;;
41480;SDS011;27217;51.220;5.308;2022-12-18T00:23:25;81.77;;;24.83;;
41480;SDS011;27217;51.220;5.308;2022-12-18T00:25:51;77.90;;;26.50;;
41480;SDS011;27217;51.220;5.308;2022-12-18T00:28:17;65.83;;;24.47;;
41480;SDS011;27217;51.220;5.308;2022-12-18T00:30:44;67.20;;;25.07;;
41480;SDS011;27217;51.220;5.308;2022-12-18T00:33:10;71.00;;;24.87;;
41480;SDS011;27217;51.220;5.308;2022-12-18T00:35:36;73.87;;;25.10;;
41480;SDS011;27217;51.220;5.308;2022-12-18T00:38:02;77.87;;;25.57;;
41480;SDS011;27217;51.220;5.308;2022-12-18T00:40:28;80.57;;;24.97;;
41480;SDS011;27217;51.220;5.308;2022-12-18T00:42:54;70.67;;;26.13;;
41480;SDS011;27217;51.220;5.308;2022-12-18T00:45:20;69.13;;;24.60;;
41480;SDS011;27217;51.220;5.308;2022-12-18T00:47:46;82.97;;;26.40;;
41480;SDS011;27217;51.220;5.308;2022-12-18T00:50:12;77.27;;;24.97;;
41480;SDS011;27217;51.220;5.308;2022-12-18T00:52:38;76.93;;;24.20;;
41480;SDS011;27217;51.220;5.308;2022-12-18T00:55:04;80.00;;;26.20;;
41480;SDS011;27217;51.220;5.308;2022-12-18T00:57:30;78.47;;;26.43;;
41480;SDS011;27217;51.220;5.308;2022-12-18T00:59:56;81.37;;;26.83;;
41480;SDS011;27217;51.220;5.308;2022-12-18T01:02:22;69.63;;;24.53;;
41480;SDS011;27217;51.220;5.308;2022-12-18T01:04:48;74.63;;;26.00;;
41480;SDS011;27217;51.220;5.308;2022-12-18T01:07:14;75.90;;;26.27;;
41480;SDS011;27217;51.220;5.308;2022-12-18T01:09:40;75.40;;;24.93;;
41480;SDS011;27217;51.220;5.308;2022-12-18T01:12:06;72.00;;;24.70;;
41480;SDS011;27217;51.220;5.308;2022-12-18T01:14:33;74.30;;;24.60;;
41480;SDS011;27217;51.220;5.308;2022-12-18T01:16:58;78.30;;;25.67;;
41480;SDS011;27217;51.220;5.308;2022-12-18T01:19:24;73.47;;;23.73;;
41480;SDS011;27217;51.220;5.308;2022-12-18T01:21:50;75.13;;;25.83;;
41480;SDS011;27217;51.220;5.308;2022-12-18T01:24:16;80.17;;;25.03;;
41480;SDS011;27217;51.220;5.308;2022-12-18T01:26:42;74.50;;;27.07;;
41480;SDS011;27217;51.220;5.308;2022-12-18T01:29:08;71.17;;;25.53;;
41480;SDS011;27217;51.220;5.308;2022-12-18T01:31:34;78.90;;;26.20;;
41480;SDS011;27217;51.220;5.308;2022-12-18T01:34:01;81.97;;;26.50;;
41480;SDS011;27217;51.220;5.308;2022-12-18T01:36:28;76.50;;;26.93;;
41480;SDS011;27217;51.220;5.308;2022-12-18T01:38:56;87.53;;;27.90;;
41480;SDS011;27217;51.220;5.308;2022-12-18T01:41:26;80.20;;;26.60;;
41480;SDS011;27217;51.220;5.308;2022-12-18T01:47:17;77.30;;;27.10;;
41480;SDS011;27217;51.220;5.308;2022-12-18T01:49:57;84.53;;;27.20;;
41480;SDS011;27217;51.220;5.308;2022-12-18T01:52:26;81.60;;;27.53;;
41480;SDS011;27217;51.220;5.308;2022-12-18T01:54:56;73.17;;;27.70;;
41480;SDS011;27217;51.220;5.308;2022-12-18T01:57:22;77.10;;;25.63;;
41480;SDS011;27217;51.220;5.308;2022-12-18T01:59:50;84.07;;;28.67;;
41480;SDS011;27217;51.220;5.308;2022-12-18T02:02:18;69.63;;;26.57;;
41480;SDS011;27217;51.220;5.308;2022-12-18T02:04:45;66.60;;;24.70;;
41480;SDS011;27217;51.220;5.308;2022-12-18T02:07:17;78.50;;;25.77;;
41480;SDS011;27217;51.220;5.308;2022-12-18T02:12:22;67.10;;;21.95;;
41480;SDS011;27217;51.220;5.308;2022-12-18T02:17:35;69.40;;;26.10;;
41480;SDS011;27217;51.220;5.308;2022-12-18T02:29:11;75.67;;;23.27;;
41480;SDS011;27217;51.220;5.308;2022-12-18T02:31:49;75.83;;;24.33;;
41480;SDS011;27217;51.220;5.308;2022-12-18T02:34:19;77.03;;;23.53;;
41480;SDS011;27217;51.220;5.308;2022-12-18T02:36:49;60.30;;;23.27;;
41480;SDS011;27217;51.220;5.308;2022-12-18T02:39:16;64.93;;;22.77;;
41480;SDS011;27217;51.220;5.308;2022-12-18T02:41:45;67.47;;;23.30;;
41480;SDS011;27217;51.220;5.308;2022-12-18T02:44:13;61.70;;;21.27;;
41480;SDS011;27217;51.220;5.308;2022-12-18T02:46:41;64.23;;;22.20;;
41480;SDS011;27217;51.220;5.308;2022-12-18T02:49:32;62.87;;;21.57;;
41480;SDS011;27217;51.220;5.308;2022-12-18T02:58:05;59.90;;;22.30;;
41480;SDS011;27217;51.220;5.308;2022-12-18T03:01:00;60.90;;;20.07;;
41480;SDS011;27217;51.220;5.308;2022-12-18T03:03:42;62.03;;;21.52;;
41480;SDS011;27217;51.220;5.308;2022-12-18T03:09:01;59.20;;;19.83;;
41480;SDS011;27217;51.220;5.308;2022-12-18T03:11:33;56.63;;;20.13;;
41480;SDS011;27217;51.220;5.308;2022-12-18T03:14:20;57.50;;;19.80;;
41480;SDS011;27217;51.220;5.308;2022-12-18T03:16:49;54.43;;;19.50;;
41480;SDS011;27217;51.220;5.308;2022-12-18T03:19:20;63.23;;;22.90;;
41480;SDS011;27217;51.220;5.308;2022-12-18T03:21:51;62.37;;;20.87;;
41480;SDS011;27217;51.220;5.308;2022-12-18T03:24:20;54.33;;;20.73;;
41480;SDS011;27217;51.220;5.308;2022-12-18T03:26:49;50.57;;;18.97;;
41480;SDS011;27217;51.220;5.308;2022-12-18T03:29:21;52.45;;;17.63;;
41480;SDS011;27217;51.220;5.308;2022-12-18T03:31:53;50.73;;;18.87;;
41480;SDS011;27217;51.220;5.308;2022-12-18T03:34:32;50.97;;;18.27;;
41480;SDS011;27217;51.220;5.308;2022-12-18T03:37:02;51.57;;;17.50;;
41480;SDS011;27217;51.220;5.308;2022-12-18T03:39:28;53.63;;;18.73;;
41480;SDS011;27217;51.220;5.308;2022-12-18T03:42:08;50.70;;;17.70;;
41480;SDS011;27217;51.220;5.308;2022-12-18T03:44:54;54.87;;;18.93;;
41480;SDS011;27217;51.220;5.308;2022-12-18T03:52:50;47.03;;;15.80;;
41480;SDS011;27217;51.220;5.308;2022-12-18T03:55:34;42.20;;;16.67;;
41480;SDS011;27217;51.220;5.308;2022-12-18T03:58:00;44.77;;;16.20;;
41480;SDS011;27217;51.220;5.308;2022-12-18T04:00:28;41.07;;;16.43;;
41480;SDS011;27217;51.220;5.308;2022-12-18T04:02:56;47.90;;;15.57;;
41480;SDS011;27217;51.220;5.308;2022-12-18T04:05:25;46.07;;;17.13;;
41480;SDS011;27217;51.220;5.308;2022-12-18T04:07:53;50.03;;;16.90;;
41480;SDS011;27217;51.220;5.308;2022-12-18T04:10:21;38.63;;;15.90;;
41480;SDS011;27217;51.220;5.308;2022-12-18T04:12:47;42.07;;;16.00;;
41480;SDS011;27217;51.220;5.308;2022-12-18T04:15:13;46.63;;;14.67;;
41480;SDS011;27217;51.220;5.308;2022-12-18T04:17:39;42.10;;;15.83;;
41480;SDS011;27217;51.220;5.308;2022-12-18T04:20:12;37.23;;;15.80;;
41480;SDS011;27217;51.220;5.308;2022-12-18T04:22:38;46.43;;;16.13;;
41480;SDS011;27217;51.220;5.308;2022-12-18T04:25:05;44.50;;;15.40;;
41480;SDS011;27217;51.220;5.308;2022-12-18T04:27:31;35.37;;;14.97;;
41480;SDS011;27217;51.220;5.308;2022-12-18T04:29:56;44.83;;;15.90;;
41480;SDS011;27217;51.220;5.308;2022-12-18T04:32:22;37.47;;;13.63;;
41480;SDS011;27217;51.220;5.308;2022-12-18T04:34:48;34.40;;;13.40;;
41480;SDS011;27217;51.220;5.308;2022-12-18T04:37:13;47.73;;;14.60;;
41480;SDS011;27217;51.220;5.308;2022-12-18T04:39:40;48.57;;;16.47;;
41480;SDS011;27217;51.220;5.308;2022-12-18T04:42:05;37.63;;;14.70;;
41480;SDS011;27217;51.220;5.308;2022-12-18T04:44:32;43.40;;;15.93;;
41480;SDS011;27217;51.220;5.308;2022-12-18T04:46:58;35.27;;;13.90;;
41480;SDS011;27217;51.220;5.308;2022-12-18T04:49:24;34.57;;;14.13;;
41480;SDS011;27217;51.220;5.308;2022-12-18T04:51:50;37.33;;;14.57;;
41480;SDS011;27217;51.220;5.308;2022-12-18T04:54:17;36.87;;;14.80;;
41480;SDS011;27217;51.220;5.308;2022-12-18T04:56:44;42.57;;;15.17;;
41480;SDS011;27217;51.220;5.308;2022-12-18T04:59:09;40.77;;;14.37;;
41480;SDS011;27217;51.220;5.308;2022-12-18T05:01:35;33.73;;;13.10;;
41480;SDS011;27217;51.220;5.308;2022-12-18T05:04:02;39.73;;;13.97;;
41480;SDS011;27217;51.220;5.308;2022-12-18T05:06:28;40.10;;;14.47;;
41480;SDS011;27217;51.220;5.308;2022-12-18T05:08:54;37.47;;;14.97;;
41480;SDS011;27217;51.220;5.308;2022-12-18T05:11:19;37.60;;;14.33;;
41480;SDS011;27217;51.220;5.308;2022-12-18T05:13:46;31.90;;;12.60;;
41480;SDS011;27217;51.220;5.308;2022-12-18T05:16:12;35.27;;;13.20;;
41480;SDS011;27217;51.220;5.308;2022-12-18T05:18:40;35.87;;;14.20;;
41480;SDS011;27217;51.220;5.308;2022-12-18T05:21:06;37.00;;;13.00;;
41480;SDS011;27217;51.220;5.308;2022-12-18T05:23:32;33.13;;;14.40;;
41480;SDS011;27217;51.220;5.308;2022-12-18T05:26:00;34.67;;;13.67;;
41480;SDS011;27217;51.220;5.308;2022-12-18T05:28:29;37.30;;;14.87;;
41480;SDS011;27217;51.220;5.308;2022-12-18T05:30:56;42.80;;;13.53;;
41480;SDS011;27217;51.220;5.308;2022-12-18T05:33:24;40.83;;;13.90;;
41480;SDS011;27217;51.220;5.308;2022-12-18T05:35:52;40.70;;;13.50;;
41480;SDS011;27217;51.220;5.308;2022-12-18T05:38:20;47.20;;;14.30;;
41480;SDS011;27217;51.220;5.308;2022-12-18T05:40:47;41.70;;;14.30;;
41480;SDS011;27217;51.220;5.308;2022-12-18T05:43:14;36.37;;;14.33;;
41480;SDS011;27217;51.220;5.308;2022-12-18T05:45:41;36.80;;;14.23;;
41480;SDS011;27217;51.220;5.308;2022-12-18T05:48:07;42.00;;;14.97;;
41480;SDS011;27217;51.220;5.308;2022-12-18T05:50:36;38.60;;;15.50;;
41480;SDS011;27217;51.220;5.308;2022-12-18T05:53:03;38.53;;;13.27;;
41480;SDS011;27217;51.220;5.308;2022-12-18T05:55:37;36.33;;;14.03;;
41480;SDS011;27217;51.220;5.308;2022-12-18T05:58:05;39.67;;;15.20;;
41480;SDS011;27217;51.220;5.308;2022-12-18T06:00:35;34.97;;;13.80;;
41480;SDS011;27217;51.220;5.308;2022-12-18T06:03:04;36.93;;;14.37;;
41480;SDS011;27217;51.220;5.308;2022-12-18T06:05:34;36.50;;;15.13;;
41480;SDS011;27217;51.220;5.308;2022-12-18T06:08:02;29.63;;;13.40;;
41480;SDS011;27217;51.220;5.308;2022-12-18T06:10:27;34.27;;;14.77;;
41480;SDS011;27217;51.220;5.308;2022-12-18T06:12:53;31.33;;;13.77;;
41480;SDS011;27217;51.220;5.308;2022-12-18T06:15:20;45.17;;;14.60;;
41480;SDS011;27217;51.220;5.308;2022-12-18T06:17:46;39.97;;;14.20;;
41480;SDS011;27217;51.220;5.308;2022-12-18T06:20:12;35.73;;;12.90;;
41480;SDS011;27217;51.220;5.308;2022-12-18T06:22:38;41.13;;;13.83;;
41480;SDS011;27217;51.220;5.308;2022-12-18T06:25:04;39.90;;;15.53;;
41480;SDS011;27217;51.220;5.308;2022-12-18T06:27:32;32.87;;;13.73;;
41480;SDS011;27217;51.220;5.308;2022-12-18T06:29:58;44.20;;;15.40;;
41480;SDS011;27217;51.220;5.308;2022-12-18T06:32:25;42.83;;;15.07;;
41480;SDS011;27217;51.220;5.308;2022-12-18T06:34:50;34.17;;;14.40;;
41480;SDS011;27217;51.220;5.308;2022-12-18T06:37:18;36.13;;;13.33;;
41480;SDS011;27217;51.220;5.308;2022-12-18T06:39:44;34.33;;;13.40;;
41480;SDS011;27217;51.220;5.308;2022-12-18T06:42:11;38.33;;;15.20;;
41480;SDS011;27217;51.220;5.308;2022-12-18T06:44:37;35.37;;;13.20;;
41480;SDS011;27217;51.220;5.308;2022-12-18T06:47:02;37.73;;;14.30;;
41480;SDS011;27217;51.220;5.308;2022-12-18T06:49:28;34.00;;;14.07;;
41480;SDS011;27217;51.220;5.308;2022-12-18T06:51:54;36.23;;;14.63;;
41480;SDS011;27217;51.220;5.308;2022-12-18T06:54:20;41.17;;;13.87;;
41480;SDS011;27217;51.220;5.308;2022-12-18T06:56:46;31.47;;;13.20;;
41480;SDS011;27217;51.220;5.308;2022-12-18T06:59:12;32.67;;;13.40;;
41480;SDS011;27217;51.220;5.308;2022-12-18T07:01:39;34.33;;;14.07;;
41480;SDS011;27217;51.220;5.308;2022-12-18T07:04:05;37.50;;;14.37;;
41480;SDS011;27217;51.220;5.308;2022-12-18T07:06:31;32.43;;;13.00;;
41480;SDS011;27217;51.220;5.308;2022-12-18T07:08:58;35.90;;;13.57;;
41480;SDS011;27217;51.220;5.308;2022-12-18T07:11:23;33.50;;;12.63;;
41480;SDS011;27217;51.220;5.308;2022-12-18T07:13:49;42.63;;;14.00;;
41480;SDS011;27217;51.220;5.308;2022-12-18T07:16:19;35.93;;;13.43;;
41480;SDS011;27217;51.220;5.308;2022-12-18T07:18:45;37.53;;;14.17;;
41480;SDS011;27217;51.220;5.308;2022-12-18T07:21:12;38.17;;;14.70;;
41480;SDS011;27217;51.220;5.308;2022-12-18T07:23:41;34.93;;;14.27;;
41480;SDS011;27217;51.220;5.308;2022-12-18T07:26:09;37.70;;;14.47;;
41480;SDS011;27217;51.220;5.308;2022-12-18T07:28:36;37.87;;;12.53;;
41480;SDS011;27217;51.220;5.308;2022-12-18T07:31:04;34.53;;;13.87;;
41480;SDS011;27217;51.220;5.308;2022-12-18T07:33:31;28.20;;;12.73;;
41480;SDS011;27217;51.220;5.308;2022-12-18T07:35:59;34.97;;;12.87;;
41480;SDS011;27217;51.220;5.308;2022-12-18T07:38:32;37.53;;;14.23;;
41480;SDS011;27217;51.220;5.308;2022-12-18T07:41:06;30.50;;;12.13;;
41480;SDS011;27217;51.220;5.308;2022-12-18T07:43:33;44.50;;;16.83;;
41480;SDS011;27217;51.220;5.308;2022-12-18T07:46:00;36.30;;;14.37;;
41480;SDS011;27217;51.220;5.308;2022-12-18T07:48:27;35.27;;;14.57;;
41480;SDS011;27217;51.220;5.308;2022-12-18T07:50:53;33.30;;;14.40;;
41480;SDS011;27217;51.220;5.308;2022-12-18T07:53:22;38.77;;;15.47;;
41480;SDS011;27217;51.220;5.308;2022-12-18T07:55:48;32.30;;;14.30;;
41480;SDS011;27217;51.220;5.308;2022-12-18T07:58:14;34.83;;;15.40;;
41480;SDS011;27217;51.220;5.308;2022-12-18T08:00:40;36.77;;;15.20;;
41480;SDS011;27217;51.220;5.308;2022-12-18T08:03:06;33.17;;;14.80;;
41480;SDS011;27217;51.220;5.308;2022-12-18T08:05:31;40.67;;;16.13;;
41480;SDS011;27217;51.220;5.308;2022-12-18T08:07:57;42.63;;;16.23;;
41480;SDS011;27217;51.220;5.308;2022-12-18T08:10:23;46.67;;;15.90;;
41480;SDS011;27217;51.220;5.308;2022-12-18T08:12:50;39.47;;;15.93;;
41480;SDS011;27217;51.220;5.308;2022-12-18T08:15:16;43.97;;;16.40;;
41480;SDS011;27217;51.220;5.308;2022-12-18T08:17:42;38.17;;;15.37;;
41480;SDS011;27217;51.220;5.308;2022-12-18T08:20:09;44.00;;;14.77;;
41480;SDS011;27217;51.220;5.308;2022-12-18T08:22:35;49.20;;;16.80;;
41480;SDS011;27217;51.220;5.308;2022-12-18T08:25:01;38.37;;;14.83;;
41480;SDS011;27217;51.220;5.308;2022-12-18T08:27:28;36.23;;;14.83;;
41480;SDS011;27217;51.220;5.308;2022-12-18T08:29:54;43.40;;;14.77;;
41480;SDS011;27217;51.220;5.308;2022-12-18T08:32:20;37.53;;;14.40;;
41480;SDS011;27217;51.220;5.308;2022-12-18T08:34:47;42.63;;;15.37;;
41480;SDS011;27217;51.220;5.308;2022-12-18T08:37:12;41.53;;;15.73;;
41480;SDS011;27217;51.220;5.308;2022-12-18T08:39:38;35.83;;;14.90;;
41480;SDS011;27217;51.220;5.308;2022-12-18T08:42:04;39.13;;;16.70;;
41480;SDS011;27217;51.220;5.308;2022-12-18T08:44:51;34.30;;;15.07;;
41480;SDS011;27217;51.220;5.308;2022-12-18T08:47:17;39.47;;;15.57;;
41480;SDS011;27217;51.220;5.308;2022-12-18T08:49:43;43.90;;;15.87;;
41480;SDS011;27217;51.220;5.308;2022-12-18T08:52:09;40.27;;;15.53;;
41480;SDS011;27217;51.220;5.308;2022-12-18T08:54:35;40.67;;;14.67;;
41480;SDS011;27217;51.220;5.308;2022-12-18T08:57:01;39.77;;;15.47;;
41480;SDS011;27217;51.220;5.308;2022-12-18T08:59:27;38.80;;;15.00;;
41480;SDS011;27217;51.220;5.308;2022-12-18T09:01:53;46.67;;;17.23;;
41480;SDS011;27217;51.220;5.308;2022-12-18T09:04:20;35.93;;;14.53;;
41480;SDS011;27217;51.220;5.308;2022-12-18T09:06:45;33.70;;;14.50;;
41480;SDS011;27217;51.220;5.308;2022-12-18T09:09:11;40.80;;;14.73;;
41480;SDS011;27217;51.220;5.308;2022-12-18T09:11:37;35.73;;;13.93;;
41480;SDS011;27217;51.220;5.308;2022-12-18T09:14:06;33.87;;;14.63;;
41480;SDS011;27217;51.220;5.308;2022-12-18T09:16:34;43.00;;;15.03;;
41480;SDS011;27217;51.220;5.308;2022-12-18T09:19:01;38.50;;;14.10;;
41480;SDS011;27217;51.220;5.308;2022-12-18T09:21:32;40.70;;;13.97;;
41480;SDS011;27217;51.220;5.308;2022-12-18T09:23:59;36.37;;;15.63;;
41480;SDS011;27217;51.220;5.308;2022-12-18T09:26:25;36.83;;;14.43;;
41480;SDS011;27217;51.220;5.308;2022-12-18T09:28:51;42.07;;;14.87;;
41480;SDS011;27217;51.220;5.308;2022-12-18T09:31:19;42.10;;;15.93;;
41480;SDS011;27217;51.220;5.308;2022-12-18T09:33:46;40.23;;;15.80;;
41480;SDS011;27217;51.220;5.308;2022-12-18T09:36:13;35.53;;;14.00;;
41480;SDS011;27217;51.220;5.308;2022-12-18T09:38:40;41.37;;;15.03;;
41480;SDS011;27217;51.220;5.308;2022-12-18T09:44:22;43.73;;;15.87;;
41480;SDS011;27217;51.220;5.308;2022-12-18T09:49:43;37.70;;;15.90;;
41480;SDS011;27217;51.220;5.308;2022-12-18T09:52:19;35.90;;;15.55;;
41480;SDS011;27217;51.220;5.308;2022-12-18T09:54:55;40.57;;;17.00;;
41480;SDS011;27217;51.220;5.308;2022-12-18T09:57:28;39.53;;;15.47;;
41480;SDS011;27217;51.220;5.308;2022-12-18T10:00:02;40.73;;;13.70;;
41480;SDS011;27217;51.220;5.308;2022-12-18T10:02:34;40.03;;;15.23;;
41480;SDS011;27217;51.220;5.308;2022-12-18T10:05:04;39.07;;;15.67;;
41480;SDS011;27217;51.220;5.308;2022-12-18T10:10:43;36.60;;;15.20;;
41480;SDS011;27217;51.220;5.308;2022-12-18T10:16:19;34.90;;;14.43;;
41480;SDS011;27217;51.220;5.308;2022-12-18T10:19:11;43.30;;;15.80;;
41480;SDS011;27217;51.220;5.308;2022-12-18T10:24:56;34.70;;;15.43;;
41480;SDS011;27217;51.220;5.308;2022-12-18T10:27:31;36.70;;;15.47;;
41480;SDS011;27217;51.220;5.308;2022-12-18T10:29:58;38.47;;;14.70;;
41480;SDS011;27217;51.220;5.308;2022-12-18T10:32:27;37.60;;;15.33;;
41480;SDS011;27217;51.220;5.308;2022-12-18T10:34:56;36.53;;;13.93;;
41480;SDS011;27217;51.220;5.308;2022-12-18T10:37:25;33.73;;;14.17;;
41480;SDS011;27217;51.220;5.308;2022-12-18T10:40:06;38.80;;;15.57;;
41480;SDS011;27217;51.220;5.308;2022-12-18T10:42:34;40.63;;;15.87;;
41480;SDS011;27217;51.220;5.308;2022-12-18T10:45:05;37.53;;;15.10;;
41480;SDS011;27217;51.220;5.308;2022-12-18T10:47:45;39.53;;;15.63;;
41480;SDS011;27217;51.220;5.308;2022-12-18T10:53:05;34.60;;;15.35;;
41480;SDS011;27217;51.220;5.308;2022-12-18T10:55:34;36.93;;;15.40;;
41480;SDS011;27217;51.220;5.308;2022-12-18T11:01:01;40.30;;;16.67;;
41480;SDS011;27217;51.220;5.308;2022-12-18T11:06:16;34.90;;;15.47;;
41480;SDS011;27217;51.220;5.308;2022-12-18T11:08:44;27.20;;;11.60;;
41480;SDS011;27217;51.220;5.308;2022-12-18T11:11:23;39.77;;;15.67;;
41480;SDS011;27217;51.220;5.308;2022-12-18T11:14:03;38.37;;;16.87;;
41480;SDS011;27217;51.220;5.308;2022-12-18T11:16:36;37.10;;;15.55;;
41480;SDS011;27217;51.220;5.308;2022-12-18T11:19:19;41.30;;;16.90;;
41480;SDS011;27217;51.220;5.308;2022-12-18T11:21:47;37.47;;;15.37;;
41480;SDS011;27217;51.220;5.308;2022-12-18T11:26:54;40.93;;;17.37;;
41480;SDS011;27217;51.220;5.308;2022-12-18T11:29:23;38.63;;;15.60;;
41480;SDS011;27217;51.220;5.308;2022-12-18T11:32:08;39.00;;;15.93;;
41480;SDS011;27217;51.220;5.308;2022-12-18T11:34:39;34.37;;;15.23;;
41480;SDS011;27217;51.220;5.308;2022-12-18T11:37:11;33.40;;;13.45;;
41480;SDS011;27217;51.220;5.308;2022-12-18T11:39:41;36.53;;;17.23;;
41480;SDS011;27217;51.220;5.308;2022-12-18T11:44:49;39.43;;;17.37;;
41480;SDS011;27217;51.220;5.308;2022-12-18T11:50:17;34.30;;;15.37;;
41480;SDS011;27217;51.220;5.308;2022-12-18T11:52:48;36.87;;;14.87;;
41480;SDS011;27217;51.220;5.308;2022-12-18T11:55:15;45.00;;;16.87;;
41480;SDS011;27217;51.220;5.308;2022-12-18T11:58:00;38.10;;;15.33;;
41480;SDS011;27217;51.220;5.308;2022-12-18T12:00:51;35.27;;;15.00;;
41480;SDS011;27217;51.220;5.308;2022-12-18T12:25:05;29.77;;;14.52;;
41480;SDS011;27217;51.220;5.308;2022-12-18T12:28:09;40.43;;;17.27;;
41480;SDS011;27217;51.220;5.308;2022-12-18T12:33:44;40.70;;;17.27;;
41480;SDS011;27217;51.220;5.308;2022-12-18T12:36:20;41.87;;;16.93;;
41480;SDS011;27217;51.220;5.308;2022-12-18T12:38:55;38.27;;;16.83;;
41480;SDS011;27217;51.220;5.308;2022-12-18T12:41:26;37.70;;;15.80;;
41480;SDS011;27217;51.220;5.308;2022-12-18T12:44:20;33.13;;;15.53;;
41480;SDS011;27217;51.220;5.308;2022-12-18T12:46:50;38.22;;;15.80;;
41480;SDS011;27217;51.220;5.308;2022-12-18T12:49:20;39.73;;;16.43;;
41480;SDS011;27217;51.220;5.308;2022-12-18T12:51:50;34.30;;;16.80;;
41480;SDS011;27217;51.220;5.308;2022-12-18T12:54:27;37.83;;;15.97;;
41480;SDS011;27217;51.220;5.308;2022-12-18T13:07:52;36.17;;;16.48;;
41480;SDS011;27217;51.220;5.308;2022-12-18T13:10:24;42.97;;;16.87;;
41480;SDS011;27217;51.220;5.308;2022-12-18T13:12:57;37.60;;;16.87;;
41480;SDS011;27217;51.220;5.308;2022-12-18T13:15:45;41.90;;;15.93;;
41480;SDS011;27217;51.220;5.308;2022-12-18T13:18:21;38.60;;;15.75;;
41480;SDS011;27217;51.220;5.308;2022-12-18T13:20:49;39.30;;;17.00;;
41480;SDS011;27217;51.220;5.308;2022-12-18T13:23:33;35.55;;;17.02;;
41480;SDS011;27217;51.220;5.308;2022-12-18T13:36:47;34.33;;;15.55;;
41480;SDS011;27217;51.220;5.308;2022-12-18T13:41:39;36.42;;;15.95;;
41480;SDS011;27217;51.220;5.308;2022-12-18T13:46:50;38.72;;;18.00;;
41480;SDS011;27217;51.220;5.308;2022-12-18T13:51:48;39.63;;;16.58;;
41480;SDS011;27217;51.220;5.308;2022-12-18T13:54:21;38.60;;;16.85;;
41480;SDS011;27217;51.220;5.308;2022-12-18T13:56:58;35.70;;;15.93;;
41480;SDS011;27217;51.220;5.308;2022-12-18T13:59:26;37.53;;;17.00;;
41480;SDS011;27217;51.220;5.308;2022-12-18T14:02:15;35.28;;;16.60;;
41480;SDS011;27217;51.220;5.308;2022-12-18T14:04:47;38.88;;;16.65;;
41480;SDS011;27217;51.220;5.308;2022-12-18T14:07:21;34.05;;;15.32;;
41480;SDS011;27217;51.220;5.308;2022-12-18T14:09:50;35.97;;;16.23;;
41480;SDS011;27217;51.220;5.308;2022-12-18T14:12:26;37.47;;;16.33;;
41480;SDS011;27217;51.220;5.308;2022-12-18T14:18:23;40.55;;;16.80;;
41480;SDS011;27217;51.220;5.308;2022-12-18T14:21:03;42.22;;;17.67;;
41480;SDS011;27217;51.220;5.308;2022-12-18T14:23:38;37.72;;;16.42;;
41480;SDS011;27217;51.220;5.308;2022-12-18T14:28:58;39.65;;;17.23;;
41480;SDS011;27217;51.220;5.308;2022-12-18T14:31:29;33.90;;;15.33;;
41480;SDS011;27217;51.220;5.308;2022-12-18T14:33:56;36.80;;;15.20;;
41480;SDS011;27217;51.220;5.308;2022-12-18T14:36:29;36.92;;;15.80;;
41480;SDS011;27217;51.220;5.308;2022-12-18T14:38:55;47.75;;;17.10;;
41480;SDS011;27217;51.220;5.308;2022-12-18T14:41:23;37.45;;;16.30;;
41480;SDS011;27217;51.220;5.308;2022-12-18T14:43:54;43.15;;;17.25;;
41480;SDS011;27217;51.220;5.308;2022-12-18T14:49:01;38.20;;;16.48;;
41480;SDS011;27217;51.220;5.308;2022-12-18T14:51:31;43.00;;;18.38;;
41480;SDS011;27217;51.220;5.308;2022-12-18T14:53:59;36.47;;;16.15;;
41480;SDS011;27217;51.220;5.308;2022-12-18T14:56:29;38.28;;;16.92;;
41480;SDS011;27217;51.220;5.308;2022-12-18T14:59:00;41.13;;;16.35;;
41480;SDS011;27217;51.220;5.308;2022-12-18T15:01:38;37.63;;;16.08;;
41480;SDS011;27217;51.220;5.308;2022-12-18T15:04:27;37.53;;;17.37;;
41480;SDS011;27217;51.220;5.308;2022-12-18T15:07:07;37.40;;;16.73;;
41480;SDS011;27217;51.220;5.308;2022-12-18T15:09:42;31.60;;;12.68;;
41480;SDS011;27217;51.220;5.308;2022-12-18T15:14:58;46.97;;;17.50;;
41480;SDS011;27217;51.220;5.308;2022-12-18T15:17:24;49.38;;;18.67;;
41480;SDS011;27217;51.220;5.308;2022-12-18T15:19:58;49.05;;;19.15;;
41480;SDS011;27217;51.220;5.308;2022-12-18T15:22:30;34.53;;;15.00;;
41480;SDS011;27217;51.220;5.308;2022-12-18T15:25:00;39.92;;;17.35;;
41480;SDS011;27217;51.220;5.308;2022-12-18T15:27:31;40.03;;;17.70;;
41480;SDS011;27217;51.220;5.308;2022-12-18T15:32:43;39.70;;;16.90;;
41480;SDS011;27217;51.220;5.308;2022-12-18T15:35:13;43.08;;;18.88;;
41480;SDS011;27217;51.220;5.308;2022-12-18T15:37:41;40.28;;;17.45;;
41480;SDS011;27217;51.220;5.308;2022-12-18T15:40:08;36.83;;;16.93;;
41480;SDS011;27217;51.220;5.308;2022-12-18T15:42:51;41.37;;;16.87;;
41480;SDS011;27217;51.220;5.308;2022-12-18T15:45:37;37.28;;;15.98;;
41480;SDS011;27217;51.220;5.308;2022-12-18T15:48:11;43.60;;;17.60;;
41480;SDS011;27217;51.220;5.308;2022-12-18T15:50:45;36.58;;;13.15;;
41480;SDS011;27217;51.220;5.308;2022-12-18T15:53:12;39.40;;;17.67;;
41480;SDS011;27217;51.220;5.308;2022-12-18T15:55:38;36.87;;;15.80;;
41480;SDS011;27217;51.220;5.308;2022-12-18T15:58:22;40.77;;;18.17;;
41480;SDS011;27217;51.220;5.308;2022-12-18T16:00:48;46.13;;;17.42;;
41480;SDS011;27217;51.220;5.308;2022-12-18T16:03:14;42.53;;;17.13;;
41480;SDS011;27217;51.220;5.308;2022-12-18T16:05:41;39.07;;;17.50;;
41480;SDS011;27217;51.220;5.308;2022-12-18T16:08:07;37.33;;;15.55;;
41480;SDS011;27217;51.220;5.308;2022-12-18T16:10:32;40.63;;;17.00;;
41480;SDS011;27217;51.220;5.308;2022-12-18T16:13:00;40.65;;;16.77;;
41480;SDS011;27217;51.220;5.308;2022-12-18T16:15:26;42.13;;;17.20;;
41480;SDS011;27217;51.220;5.308;2022-12-18T16:17:51;34.97;;;16.43;;
41480;SDS011;27217;51.220;5.308;2022-12-18T16:20:18;36.92;;;16.52;;
41480;SDS011;27217;51.220;5.308;2022-12-18T16:22:46;40.40;;;16.73;;
41480;SDS011;27217;51.220;5.308;2022-12-18T16:25:24;36.93;;;16.00;;
41480;SDS011;27217;51.220;5.308;2022-12-18T16:27:52;39.20;;;16.23;;
41480;SDS011;27217;51.220;5.308;2022-12-18T16:30:27;37.58;;;17.23;;
41480;SDS011;27217;51.220;5.308;2022-12-18T16:32:58;35.37;;;16.20;;
41480;SDS011;27217;51.220;5.308;2022-12-18T16:35:24;38.15;;;16.15;;
41480;SDS011;27217;51.220;5.308;2022-12-18T16:37:51;39.15;;;18.23;;
41480;SDS011;27217;51.220;5.308;2022-12-18T16:40:17;45.03;;;17.27;;
41480;SDS011;27217;51.220;5.308;2022-12-18T16:42:44;40.17;;;17.17;;
41480;SDS011;27217;51.220;5.308;2022-12-18T16:45:12;36.72;;;16.67;;
41480;SDS011;27217;51.220;5.308;2022-12-18T16:47:39;47.03;;;17.55;;
41480;SDS011;27217;51.220;5.308;2022-12-18T16:50:06;43.28;;;20.02;;